Time;durP1;ratioP1;P1;durP2;ratioP2;P2;SDS_P1;SDS_P2;PMS_P1;PMS_P2;Temp;Humidity;BMP_temperature;BMP_pressure;BME280_temperature;BME280_humidity;BME280_pressure;Samples;Min_cycle;Max_cycle;Signal;HPM_P1;HPM_P2
2021/07/23 00:00:39;;;;;;;3.17;2.58;;;21.30;72.80;;;;;;5103147;28;20432;-70
2021/07/23 00:03:05;;;;;;;5.25;2.70;;;21.30;72.70;;;;;;5102971;28;20078;-70
2021/07/23 00:05:31;;;;;;;2.85;2.47;;;21.30;72.50;;;;;;5102901;28;20019;-70
2021/07/23 00:07:57;;;;;;;2.55;2.20;;;21.20;72.50;;;;;;5103243;28;20035;-70
2021/07/23 00:10:23;;;;;;;3.60;2.45;;;21.20;72.30;;;;;;5103171;28;20024;-70
2021/07/23 00:12:48;;;;;;;3.10;2.13;;;21.30;72.50;;;;;;5102819;28;20404;-70
2021/07/23 00:15:14;;;;;;;3.03;2.38;;;21.20;72.70;;;;;;5103189;28;20044;-70
2021/07/23 00:17:40;;;;;;;6.38;2.40;;;21.20;73.20;;;;;;5102639;28;20032;-70
2021/07/23 00:20:06;;;;;;;2.88;2.53;;;21.20;73.50;;;;;;5098842;28;20367;-70
2021/07/23 00:22:32;;;;;;;3.70;2.90;;;21.20;72.40;;;;;;5099529;28;20048;-70
2021/07/23 00:24:58;;;;;;;3.50;2.60;;;21.20;73.00;;;;;;5099838;28;20095;-70
2021/07/23 00:27:24;;;;;;;4.47;2.40;;;21.10;73.90;;;;;;5099770;28;20117;-70
2021/07/23 00:29:49;;;;;;;4.45;2.70;;;21.10;74.80;;;;;;5099465;28;20363;-70
2021/07/23 00:32:15;;;;;;;5.68;2.55;;;21.00;74.10;;;;;;5099708;28;20052;-70
2021/07/23 00:34:41;;;;;;;3.83;2.80;;;21.00;74.60;;;;;;5099666;28;20028;-70
2021/07/23 00:37:06;;;;;;;3.85;2.60;;;20.90;75.60;;;;;;5099582;28;20107;-70
2021/07/23 00:39:32;;;;;;;4.47;3.20;;;20.80;75.50;;;;;;5099504;28;20370;-70
2021/07/23 00:41:58;;;;;;;3.40;2.70;;;20.70;75.90;;;;;;5099432;28;20107;-70
2021/07/23 00:44:25;;;;;;;3.72;2.85;;;20.70;76.10;;;;;;5099125;28;20052;-70
2021/07/23 00:46:50;;;;;;;3.85;2.97;;;20.70;75.00;;;;;;5099418;28;20040;-70
2021/07/23 00:49:17;;;;;;;5.10;2.80;;;20.70;74.70;;;;;;5099392;28;20038;-70
2021/07/23 00:51:43;;;;;;;3.65;2.42;;;20.70;76.00;;;;;;5099386;28;20142;-70
2021/07/23 00:54:10;;;;;;;5.65;3.63;;;20.70;75.50;;;;;;5099001;28;20054;-70
2021/07/23 00:56:36;;;;;;;3.70;2.67;;;20.70;74.30;;;;;;5099230;28;20054;-70
2021/07/23 00:59:03;;;;;;;5.22;2.70;;;20.80;74.30;;;;;;5099186;28;20035;-70
2021/07/23 01:01:29;;;;;;;4.13;2.65;;;20.90;74.50;;;;;;5098798;28;20056;-70
2021/07/23 01:03:55;;;;;;;3.67;2.70;;;20.80;74.70;;;;;;5099095;28;20032;-70
2021/07/23 01:06:22;;;;;;;4.53;2.78;;;20.80;73.90;;;;;;5099079;28;20121;-70
2021/07/23 01:08:48;;;;;;;3.35;3.05;;;20.80;74.40;;;;;;5099015;28;20024;-70
2021/07/23 01:11:14;;;;;;;2.90;2.30;;;20.80;74.20;;;;;;5098947;28;20032;-70
2021/07/23 01:13:40;;;;;;;4.55;2.67;;;20.80;74.40;;;;;;5098937;28;20032;-70
2021/07/23 01:16:06;;;;;;;3.13;2.28;;;20.80;73.90;;;;;;5098553;28;20036;-70
2021/07/23 01:18:32;;;;;;;3.15;2.70;;;20.80;73.10;;;;;;5098803;28;20067;-70
2021/07/23 01:21:00;;;;;;;3.05;2.55;;;20.80;72.70;;;;;;5098430;28;20106;-70
2021/07/23 01:23:30;;;;;;;3.35;2.53;;;20.80;73.00;;;;;;5098711;28;20031;-70
2021/07/23 01:25:58;;;;;;;4.40;2.70;;;20.80;72.80;;;;;;5098317;28;20024;-70
2021/07/23 01:28:28;;;;;;;3.05;2.55;;;20.70;72.70;;;;;;5098352;28;20032;-70
2021/07/23 01:30:54;;;;;;;3.20;2.90;;;20.80;72.80;;;;;;5098269;28;20024;-70
2021/07/23 01:33:19;;;;;;;3.30;2.83;;;20.80;73.10;;;;;;5098220;28;20047;-70
2021/07/23 01:35:46;;;;;;;4.90;2.78;;;20.90;73.90;;;;;;5098481;28;20032;-70
2021/07/23 01:38:14;;;;;;;3.63;2.55;;;20.90;73.50;;;;;;5098478;28;20035;-70
2021/07/23 01:40:44;;;;;;;4.88;2.88;;;20.90;73.60;;;;;;5098290;28;20028;-71
2021/07/23 01:43:16;;;;;;;4.05;3.22;;;20.90;73.80;;;;;;5098401;28;20059;-71
2021/07/23 01:45:43;;;;;;;3.85;2.72;;;20.80;74.40;;;;;;5097883;28;20052;-70
2021/07/23 01:48:08;;;;;;;3.35;2.78;;;20.80;74.20;;;;;;5098000;28;20103;-70
2021/07/23 01:50:34;;;;;;;3.85;2.88;;;20.70;74.50;;;;;;5097864;28;20064;-70
2021/07/23 01:53:00;;;;;;;3.35;2.63;;;20.70;74.70;;;;;;5098138;28;20035;-70
2021/07/23 01:55:25;;;;;;;4.22;2.50;;;20.70;74.80;;;;;;5097792;28;20427;-70
2021/07/23 01:57:51;;;;;;;4.20;3.00;;;20.70;74.70;;;;;;5098101;28;20028;-70
2021/07/23 02:00:17;;;;;;;3.47;2.83;;;20.70;74.20;;;;;;5098001;28;20024;-70
2021/07/23 02:02:43;;;;;;;3.05;2.63;;;20.70;73.50;;;;;;5098004;28;20039;-70
2021/07/23 02:05:09;;;;;;;3.53;2.50;;;20.80;73.60;;;;;;5097635;28;20048;-70
2021/07/23 02:07:36;;;;;;;4.28;2.70;;;20.80;73.60;;;;;;5097866;28;20142;-70
2021/07/23 02:10:04;;;;;;;4.20;2.83;;;20.80;74.10;;;;;;5097523;28;20020;-70
2021/07/23 02:12:30;;;;;;;4.50;3.10;;;20.80;74.50;;;;;;5097702;28;20371;-70
2021/07/23 02:14:55;;;;;;;3.78;3.10;;;20.80;74.10;;;;;;5097754;28;20052;-70
2021/07/23 02:17:21;;;;;;;4.75;3.13;;;20.70;73.70;;;;;;5097726;28;20423;-70
2021/07/23 02:19:47;;;;;;;3.55;2.67;;;20.70;72.70;;;;;;5097364;28;20024;-70
2021/07/23 02:22:12;;;;;;;2.97;2.30;;;20.80;73.00;;;;;;5097270;28;20085;-70
2021/07/23 02:24:38;;;;;;;5.70;3.22;;;20.90;72.90;;;;;;5097574;28;20050;-70
2021/07/23 02:27:04;;;;;;;3.65;2.70;;;20.80;73.00;;;;;;5097600;28;20328;-71
2021/07/23 02:29:29;;;;;;;4.72;2.85;;;20.80;73.80;;;;;;5097228;28;20020;-70
2021/07/23 02:31:55;;;;;;;4.65;2.70;;;20.80;74.20;;;;;;5097161;28;20035;-70
2021/07/23 02:34:21;;;;;;;3.55;3.05;;;20.60;74.80;;;;;;5097455;28;20020;-70
2021/07/23 02:36:46;;;;;;;6.32;2.70;;;20.50;74.70;;;;;;5097409;28;20059;-70
2021/07/23 02:39:12;;;;;;;4.13;2.92;;;20.50;74.20;;;;;;5097065;28;20035;-70
2021/07/23 02:41:38;;;;;;;4.05;3.15;;;20.50;74.80;;;;;;5096258;28;20028;-70
2021/07/23 02:44:04;;;;;;;3.65;2.80;;;20.50;74.60;;;;;;5097099;28;20036;-70
2021/07/23 02:46:30;;;;;;;5.30;3.08;;;20.40;74.50;;;;;;5097266;28;20047;-70
2021/07/23 02:48:56;;;;;;;4.82;2.95;;;20.50;73.90;;;;;;5097222;28;20025;-70
2021/07/23 02:51:21;;;;;;;3.38;2.75;;;20.50;74.20;;;;;;5097229;28;20032;-70
2021/07/23 02:53:47;;;;;;;2.83;2.58;;;20.50;74.00;;;;;;5097138;28;20095;-70
2021/07/23 02:56:13;;;;;;;4.75;3.05;;;20.50;74.20;;;;;;5096817;28;20055;-70
2021/07/23 02:58:42;;;;;;;4.72;3.00;;;20.50;74.40;;;;;;5097129;28;20039;-70
2021/07/23 03:01:09;;;;;;;3.35;2.60;;;20.50;73.70;;;;;;5097030;28;20032;-70
2021/07/23 03:03:35;;;;;;;3.53;2.78;;;20.50;73.80;;;;;;5096758;28;20048;-70
2021/07/23 03:06:01;;;;;;;4.03;2.75;;;20.40;75.10;;;;;;5096999;28;20030;-70
2021/07/23 03:08:28;;;;;;;3.55;2.95;;;20.40;74.10;;;;;;5097067;28;20487;-70
2021/07/23 03:10:54;;;;;;;5.43;3.28;;;20.30;74.80;;;;;;5096969;28;20028;-70
2021/07/23 03:13:20;;;;;;;5.20;2.95;;;20.30;74.90;;;;;;5096997;28;20056;-70
2021/07/23 03:15:46;;;;;;;3.65;2.85;;;20.20;75.80;;;;;;5096629;28;20055;-70
2021/07/23 03:18:11;;;;;;;4.93;3.13;;;20.10;76.40;;;;;;5096916;28;20031;-70
2021/07/23 03:20:38;;;;;;;7.78;3.25;;;20.00;76.30;;;;;;5096819;28;20032;-70
2021/07/23 03:23:04;;;;;;;3.53;2.72;;;19.90;76.50;;;;;;5096612;28;20370;-70
2021/07/23 03:25:30;;;;;;;3.30;2.60;;;19.90;76.70;;;;;;5096490;28;20416;-70
2021/07/23 03:27:56;;;;;;;3.85;3.10;;;20.00;76.50;;;;;;5096841;28;20032;-70
2021/07/23 03:30:21;;;;;;;5.35;3.00;;;19.90;77.80;;;;;;5096854;28;20035;-70
2021/07/23 03:32:47;;;;;;;5.63;3.10;;;19.80;78.20;;;;;;5096794;28;20039;-69
2021/07/23 03:35:13;;;;;;;4.65;3.05;;;19.60;78.90;;;;;;5096808;28;20020;-71
2021/07/23 03:37:39;;;;;;;4.88;3.50;;;19.50;77.90;;;;;;5096669;28;20408;-70
2021/07/23 03:40:06;;;;;;;3.83;3.35;;;19.60;77.90;;;;;;5096393;28;20081;-70
2021/07/23 03:42:32;;;;;;;4.65;3.13;;;19.60;77.90;;;;;;5096199;28;20055;-70
2021/07/23 03:44:58;;;;;;;3.85;3.05;;;19.70;77.60;;;;;;5096199;28;20054;-70
2021/07/23 03:47:23;;;;;;;4.38;3.00;;;19.70;78.50;;;;;;5096650;28;20016;-70
2021/07/23 03:49:49;;;;;;;6.05;3.28;;;19.70;77.50;;;;;;5096647;28;20035;-70
2021/07/23 03:52:15;;;;;;;3.10;2.75;;;19.70;77.80;;;;;;5096338;28;20032;-70
2021/07/23 03:54:40;;;;;;;5.07;3.30;;;19.70;77.90;;;;;;5100253;28;20023;-70
2021/07/23 03:57:06;;;;;;;4.25;3.05;;;19.70;77.80;;;;;;5100441;28;20434;-70
2021/07/23 03:59:33;;;;;;;7.28;3.10;;;19.70;77.80;;;;;;5100063;28;20327;-70
2021/07/23 04:01:58;;;;;;;3.92;3.25;;;19.70;77.30;;;;;;5100266;28;20024;-70
2021/07/23 04:04:24;;;;;;;3.83;2.97;;;19.80;76.50;;;;;;5100289;28;20035;-70
2021/07/23 04:06:58;;;;;;;5.82;3.53;;;19.90;76.60;;;;;;5100249;28;20020;-70
2021/07/23 04:09:25;;;;;;;5.53;3.30;;;20.00;76.00;;;;;;5100214;28;20085;-71
2021/07/23 04:11:52;;;;;;;4.95;3.10;;;20.10;75.90;;;;;;5099841;28;20110;-70
2021/07/23 04:14:18;;;;;;;3.08;2.78;;;20.10;75.80;;;;;;5100155;28;20404;-70
2021/07/23 04:16:44;;;;;;;4.43;3.50;;;20.10;75.70;;;;;;5100045;28;20346;-70
2021/07/23 04:19:10;;;;;;;4.10;3.05;;;20.20;75.40;;;;;;5099980;28;20082;-70
2021/07/23 04:21:36;;;;;;;5.03;3.40;;;20.20;76.40;;;;;;5099868;28;20104;-70
2021/07/23 04:24:02;;;;;;;5.13;3.47;;;20.20;75.90;;;;;;5099585;28;20024;-70
2021/07/23 04:26:27;;;;;;;5.88;3.70;;;20.20;75.90;;;;;;5100035;28;20304;-70
2021/07/23 04:28:53;;;;;;;7.25;3.47;;;20.20;75.40;;;;;;5099504;28;20031;-70
2021/07/23 04:31:19;;;;;;;5.90;3.40;;;20.30;75.50;;;;;;5099797;28;20118;-70
2021/07/23 04:33:44;;;;;;;4.25;3.28;;;20.30;75.00;;;;;;5099413;28;20074;-70
2021/07/23 04:36:10;;;;;;;5.15;3.10;;;20.30;74.90;;;;;;5099666;28;20069;-71
2021/07/23 04:38:36;;;;;;;5.47;3.70;;;20.40;75.10;;;;;;5099630;28;20028;-70
2021/07/23 04:41:03;;;;;;;5.30;3.60;;;20.40;74.70;;;;;;5099509;28;20024;-70
2021/07/23 04:43:31;;;;;;;7.28;3.42;;;20.50;74.40;;;;;;5099589;28;20113;-70
2021/07/23 04:45:57;;;;;;;3.83;3.42;;;20.70;74.30;;;;;;5099011;28;20059;-70
2021/07/23 04:48:22;;;;;;;5.45;3.90;;;20.80;74.50;;;;;;5099131;28;20405;-70
2021/07/23 04:50:48;;;;;;;6.60;3.90;;;20.90;74.70;;;;;;5099412;28;20028;-71
2021/07/23 04:53:14;;;;;;;5.15;3.47;;;20.90;74.80;;;;;;5099331;28;20031;-70
2021/07/23 04:55:40;;;;;;;4.97;3.67;;;21.00;74.30;;;;;;5099266;28;20028;-70
2021/07/23 04:58:06;;;;;;;4.70;3.42;;;21.00;74.40;;;;;;5098982;28;20035;-70
2021/07/23 05:00:31;;;;;;;6.05;3.95;;;21.10;74.40;;;;;;5098798;28;20075;-70
2021/07/23 05:02:57;;;;;;;4.20;3.75;;;21.20;75.50;;;;;;5099154;28;20031;-70
2021/07/23 05:05:23;;;;;;;4.80;3.20;;;21.30;74.90;;;;;;5098372;28;20020;-70
2021/07/23 05:07:50;;;;;;;5.82;3.78;;;21.50;74.90;;;;;;5099105;28;20058;-70
2021/07/23 05:10:17;;;;;;;7.03;3.80;;;21.60;73.50;;;;;;5098713;28;20039;-70
2021/07/23 05:12:43;;;;;;;4.68;3.60;;;21.60;74.10;;;;;;5098952;28;20063;-70
2021/07/23 05:15:10;;;;;;;4.88;3.45;;;21.60;73.60;;;;;;5098964;28;20036;-70
2021/07/23 05:17:38;;;;;;;5.63;3.72;;;21.70;73.60;;;;;;5098848;28;20051;-70
2021/07/23 05:20:06;;;;;;;4.57;3.13;;;21.70;72.90;;;;;;5098798;28;20066;-71
2021/07/23 05:22:33;;;;;;;4.03;3.38;;;21.80;72.90;;;;;;5098395;28;20061;-70
2021/07/23 05:24:59;;;;;;;4.20;3.33;;;21.70;73.50;;;;;;5098427;28;20031;-70
2021/07/23 05:27:25;;;;;;;7.65;3.80;;;21.70;72.90;;;;;;5098347;28;20489;-70
2021/07/23 05:29:51;;;;;;;5.85;3.58;;;21.70;73.50;;;;;;5098642;28;20026;-70
2021/07/23 05:32:17;;;;;;;6.70;3.50;;;21.70;72.90;;;;;;5098300;28;20035;-70
2021/07/23 05:34:43;;;;;;;3.88;3.50;;;21.80;73.90;;;;;;5098522;28;20040;-70
2021/07/23 05:37:09;;;;;;;4.30;3.45;;;21.70;73.60;;;;;;5098465;28;20309;-70
2021/07/23 05:39:34;;;;;;;3.65;3.25;;;21.70;74.10;;;;;;5098489;28;20030;-70
2021/07/23 05:42:03;;;;;;;4.13;3.65;;;21.50;73.90;;;;;;5098357;28;20411;-70
2021/07/23 05:44:33;;;;;;;6.20;3.70;;;21.40;74.90;;;;;;5098106;28;20070;-71
2021/07/23 05:46:59;;;;;;;5.20;3.83;;;21.40;75.00;;;;;;5098275;28;20319;-70
2021/07/23 05:49:26;;;;;;;4.57;3.72;;;21.40;75.10;;;;;;5098256;28;20028;-70
2021/07/23 05:51:51;;;;;;;4.25;3.80;;;21.40;75.00;;;;;;5097918;28;20424;-70
2021/07/23 05:54:17;;;;;;;4.82;3.80;;;21.50;75.00;;;;;;5097876;28;20028;-70
2021/07/23 05:56:42;;;;;;;5.18;3.72;;;21.60;74.80;;;;;;5098092;28;20119;-71
2021/07/23 05:59:08;;;;;;;8.98;4.07;;;21.50;74.60;;;;;;5098068;28;20080;-70
2021/07/23 06:01:34;;;;;;;4.43;3.90;;;21.50;75.10;;;;;;5097999;28;20112;-70
2021/07/23 06:03:59;;;;;;;9.02;4.40;;;21.60;74.40;;;;;;5097678;28;20387;-70
2021/07/23 06:06:25;;;;;;;5.65;4.20;;;21.80;74.50;;;;;;5097951;28;20028;-70
2021/07/23 06:08:51;;;;;;;5.95;4.15;;;21.90;73.70;;;;;;5097899;28;20118;-70
2021/07/23 06:11:17;;;;;;;5.50;4.22;;;22.10;73.20;;;;;;5097868;28;20513;-70
2021/07/23 06:13:42;;;;;;;6.50;4.13;;;22.30;73.40;;;;;;5097690;28;20040;-70
2021/07/23 06:16:09;;;;;;;5.82;4.60;;;22.40;72.60;;;;;;5096746;28;20119;-70
2021/07/23 06:18:35;;;;;;;5.90;4.35;;;22.40;72.90;;;;;;5097215;28;20048;-70
2021/07/23 06:21:00;;;;;;;6.97;5.03;;;22.50;72.20;;;;;;5097644;28;20078;-70
2021/07/23 06:23:26;;;;;;;4.47;4.03;;;22.60;72.50;;;;;;5097674;28;20016;-70
2021/07/23 06:25:53;;;;;;;11.57;4.18;;;22.50;71.80;;;;;;5097293;28;20097;-70
2021/07/23 06:28:18;;;;;;;7.72;4.15;;;22.50;71.60;;;;;;5097615;28;20044;-70
2021/07/23 06:30:45;;;;;;;9.32;4.55;;;22.40;72.00;;;;;;5097196;28;20320;-71
2021/07/23 06:33:11;;;;;;;5.10;4.18;;;22.50;72.60;;;;;;5097512;28;20051;-70
2021/07/23 06:35:37;;;;;;;6.15;4.28;;;22.70;72.80;;;;;;5097110;28;20454;-70
2021/07/23 06:38:03;;;;;;;5.88;3.58;;;23.10;70.60;;;;;;5097430;28;20024;-70
2021/07/23 06:40:28;;;;;;;9.20;4.60;;;23.30;70.50;;;;;;5097261;28;20024;-70
2021/07/23 06:42:54;;;;;;;6.90;4.30;;;23.80;70.00;;;;;;5097337;28;20389;-70
2021/07/23 06:45:20;;;;;;;5.72;4.20;;;24.50;68.50;;;;;;5096817;28;20047;-70
2021/07/23 06:47:45;;;;;;;6.25;4.03;;;25.30;67.10;;;;;;5097283;28;20024;-70
2021/07/23 06:50:11;;;;;;;7.03;4.18;;;26.20;65.10;;;;;;5096924;28;20020;-71
2021/07/23 06:52:37;;;;;;;7.35;4.50;;;27.00;64.80;;;;;;5096897;28;20039;-71
2021/07/23 06:55:03;;;;;;;4.40;3.95;;;27.60;61.10;;;;;;5096852;28;20432;-70
2021/07/23 06:57:34;;;;;;;5.57;4.03;;;28.10;61.90;;;;;;5097110;28;20321;-70
2021/07/23 07:00:00;;;;;;;5.45;4.07;;;28.20;61.60;;;;;;5097117;28;20054;-70
2021/07/23 07:02:25;;;;;;;7.93;3.78;;;28.10;61.50;;;;;;5078886;28;20028;-71
2021/07/23 07:04:51;;;;;;;7.60;3.90;;;28.00;61.50;;;;;;5097034;28;20027;-71
2021/07/23 07:07:17;;;;;;;4.82;3.65;;;27.90;61.50;;;;;;5097048;28;20024;-71
2021/07/23 07:09:43;;;;;;;4.88;3.90;;;28.10;60.90;;;;;;5096707;28;20024;-71
2021/07/23 07:12:09;;;;;;;7.53;4.53;;;28.30;61.10;;;;;;5097015;28;20103;-71
2021/07/23 07:14:36;;;;;;;7.72;4.32;;;28.70;61.10;;;;;;5097112;28;20102;-71
2021/07/23 07:17:02;;;;;;;4.15;3.72;;;29.10;61.40;;;;;;5096629;28;20024;-71
2021/07/23 07:19:28;;;;;;;5.43;3.78;;;29.30;59.40;;;;;;5096625;28;20024;-71
2021/07/23 07:21:54;;;;;;;4.03;3.60;;;28.80;59.60;;;;;;5096853;28;20028;-71
2021/07/23 07:24:20;;;;;;;5.32;4.10;;;28.40;60.70;;;;;;5096877;28;20024;-71
2021/07/23 07:26:48;;;;;;;7.65;4.35;;;28.00;61.10;;;;;;5096498;28;20405;-70
2021/07/23 07:29:15;;;;;;;6.38;4.10;;;27.50;62.60;;;;;;5100075;28;20027;-70
2021/07/23 07:31:40;;;;;;;5.85;4.00;;;27.10;63.70;;;;;;5100957;28;20323;-71
2021/07/23 07:34:07;;;;;;;6.85;3.63;;;27.10;64.80;;;;;;5100553;28;20028;-70
2021/07/23 07:36:33;;;;;;;4.25;3.65;;;27.40;64.30;;;;;;5100859;28;20032;-71
2021/07/23 07:38:59;;;;;;;7.20;4.30;;;27.70;63.60;;;;;;5100790;28;20365;-71
2021/07/23 07:41:26;;;;;;;5.78;4.43;;;28.30;62.70;;;;;;5100407;28;20115;-71
2021/07/23 07:43:52;;;;;;;5.45;4.50;;;29.10;59.40;;;;;;5100271;28;20028;-71
2021/07/23 07:46:18;;;;;;;4.45;3.67;;;29.80;57.80;;;;;;5100353;28;20032;-71
2021/07/23 07:48:44;;;;;;;4.43;3.67;;;30.40;58.00;;;;;;5100331;28;20020;-71
2021/07/23 07:51:10;;;;;;;5.13;3.97;;;30.90;58.20;;;;;;5100557;28;20056;-71
2021/07/23 07:53:36;;;;;;;7.72;4.30;;;31.20;56.30;;;;;;5100193;28;20032;-71
2021/07/23 07:56:05;;;;;;;8.13;3.55;;;31.40;58.80;;;;;;5100158;28;20027;-71
2021/07/23 07:58:32;;;;;;;4.50;3.90;;;31.40;57.10;;;;;;5100481;28;20024;-71
2021/07/23 08:00:58;;;;;;;6.53;4.03;;;31.40;56.50;;;;;;5100294;28;20062;-71
2021/07/23 08:03:23;;;;;;;4.95;4.15;;;31.60;56.40;;;;;;5100062;28;20431;-71
2021/07/23 08:05:49;;;;;;;5.47;3.80;;;31.50;56.30;;;;;;5100263;28;20069;-71
2021/07/23 08:08:15;;;;;;;6.25;3.63;;;31.60;55.50;;;;;;5100252;28;20184;-71
2021/07/23 08:10:47;;;;;;;5.97;3.97;;;31.70;55.80;;;;;;5100171;28;20103;-71
2021/07/23 08:13:14;;;;;;;6.85;4.10;;;31.70;56.00;;;;;;5100162;28;20036;-71
2021/07/23 08:15:40;;;;;;;5.82;3.97;;;32.00;56.60;;;;;;5100132;28;20039;-71
2021/07/23 08:18:05;;;;;;;5.80;4.20;;;32.00;54.80;;;;;;5099748;28;20416;-71
2021/07/23 08:20:32;;;;;;;5.53;4.00;;;32.10;55.50;;;;;;5099621;28;20077;-71
2021/07/23 08:23:01;;;;;;;4.60;3.92;;;32.10;55.10;;;;;;5099633;28;20027;-71
2021/07/23 08:25:26;;;;;;;5.78;4.47;;;32.20;53.40;;;;;;5099881;28;20077;-71
2021/07/23 08:27:52;;;;;;;5.95;4.07;;;32.30;53.80;;;;;;5099898;28;20020;-71
2021/07/23 08:30:18;;;;;;;5.38;4.22;;;32.20;53.80;;;;;;5099848;28;20021;-71
2021/07/23 08:32:45;;;;;;;4.88;4.28;;;32.20;55.00;;;;;;5099774;28;20081;-71
2021/07/23 08:35:10;;;;;;;4.32;3.88;;;32.20;55.10;;;;;;5099736;28;20020;-71
2021/07/23 08:37:36;;;;;;;5.15;3.85;;;32.40;53.80;;;;;;5099627;28;20028;-71
2021/07/23 08:40:05;;;;;;;3.88;3.55;;;32.40;54.90;;;;;;5098492;28;20119;-71
2021/07/23 08:42:32;;;;;;;5.47;4.07;;;32.40;52.10;;;;;;5099501;28;20324;-71
2021/07/23 08:45:01;;;;;;;4.60;4.03;;;32.20;54.90;;;;;;5099172;28;20094;-71
2021/07/23 08:47:27;;;;;;;6.68;3.60;;;32.30;53.70;;;;;;5099430;28;20044;-71
2021/07/23 08:49:53;;;;;;;5.93;3.65;;;32.50;54.30;;;;;;5099154;28;20111;-71
2021/07/23 08:52:47;;;;;;;6.80;3.80;;;32.70;52.80;;;;;;5099431;28;20031;-71
2021/07/23 08:55:15;;;;;;;7.47;4.05;;;33.00;54.30;;;;;;5099373;28;20101;-71
2021/07/23 08:57:41;;;;;;;4.55;3.83;;;33.10;52.30;;;;;;5099289;28;20027;-71
2021/07/23 09:00:10;;;;;;;7.95;3.75;;;33.10;52.30;;;;;;5099232;28;20024;-71
2021/07/23 09:02:58;;;;;;;5.40;3.78;;;32.90;54.30;;;;;;5099080;28;20028;-71
2021/07/23 09:05:37;;;;;;;4.85;4.35;;;33.10;54.10;;;;;;5098729;28;20028;-71
2021/07/23 09:08:17;;;;;;;3.97;3.67;;;33.30;52.00;;;;;;5099139;28;20030;-71
2021/07/23 09:10:44;;;;;;;5.65;3.85;;;33.20;52.60;;;;;;5099046;28;20028;-71
2021/07/23 09:13:19;;;;;;;5.38;4.38;;;33.30;52.80;;;;;;5098771;28;20314;-71
2021/07/23 09:15:45;;;;;;;4.85;4.35;;;33.30;52.00;;;;;;5098923;28;20031;-71
2021/07/23 09:18:28;;;;;;;5.93;4.03;;;33.50;52.10;;;;;;5098910;28;20412;-71
2021/07/23 09:21:05;;;;;;;6.68;4.43;;;33.50;50.50;;;;;;5098494;28;20032;-71
2021/07/23 09:23:32;;;;;;;7.88;4.90;;;33.30;53.30;;;;;;5098577;28;20103;-71
2021/07/23 09:26:02;;;;;;;5.43;4.00;;;33.20;52.30;;;;;;5098737;28;20372;-71
2021/07/23 09:28:29;;;;;;;6.15;4.63;;;33.30;51.20;;;;;;5098735;28;20312;-71
2021/07/23 09:30:57;;;;;;;7.07;4.90;;;33.50;52.70;;;;;;5098656;28;20032;-71
2021/07/23 09:33:28;;;;;;;5.95;4.32;;;33.70;51.10;;;;;;5098640;28;20297;-71
2021/07/23 09:35:59;;;;;;;6.70;4.70;;;33.80;52.40;;;;;;5098204;28;20031;-71
2021/07/23 09:38:34;;;;;;;5.15;4.03;;;33.70;52.10;;;;;;5098236;28;20032;-71
2021/07/23 09:41:00;;;;;;;9.95;4.50;;;33.70;51.60;;;;;;5098073;28;20032;-71
2021/07/23 09:43:34;;;;;;;5.05;4.60;;;33.40;52.20;;;;;;5098229;28;20426;-71
2021/07/23 09:46:18;;;;;;;9.65;4.93;;;33.20;53.00;;;;;;5098042;28;20040;-71
2021/07/23 09:48:47;;;;;;;5.50;4.80;;;33.40;52.70;;;;;;5098040;28;20032;-71
2021/07/23 09:51:14;;;;;;;6.22;4.85;;;33.50;51.10;;;;;;5097749;28;20424;-71
2021/07/23 09:53:40;;;;;;;5.82;5.32;;;33.70;52.00;;;;;;5097798;28;20035;-71
2021/07/23 09:56:07;;;;;;;6.53;5.00;;;33.80;51.30;;;;;;5098178;28;20107;-71
2021/07/23 09:58:37;;;;;;;9.38;5.40;;;34.00;50.90;;;;;;5098113;28;20032;-71
2021/07/23 10:01:08;;;;;;;6.82;5.40;;;34.10;51.80;;;;;;5097707;28;20102;-71
2021/07/23 10:03:38;;;;;;;8.40;5.28;;;34.00;50.10;;;;;;5098115;28;20095;-71
2021/07/23 10:06:07;;;;;;;9.25;5.13;;;34.10;52.80;;;;;;5097742;28;20066;-71
2021/07/23 10:08:35;;;;;;;7.10;5.38;;;34.10;51.50;;;;;;5097502;28;20412;-71
2021/07/23 10:11:02;;;;;;;8.48;5.28;;;33.90;51.30;;;;;;5097919;28;20058;-72
2021/07/23 10:13:29;;;;;;;6.40;4.85;;;34.10;51.00;;;;;;5097710;28;20111;-71
2021/07/23 10:15:56;;;;;;;6.13;5.00;;;33.90;51.60;;;;;;5097771;28;20043;-71
2021/07/23 10:18:25;;;;;;;8.45;5.28;;;33.90;51.80;;;;;;5095898;28;20024;-71
2021/07/23 10:20:51;;;;;;;7.03;5.10;;;33.80;51.90;;;;;;5100687;28;20080;-72
2021/07/23 10:23:22;;;;;;;7.38;4.80;;;34.00;52.50;;;;;;5097688;28;20036;-71
2021/07/23 10:25:49;;;;;;;9.70;4.78;;;34.10;49.70;;;;;;5097623;28;20016;-71
2021/07/23 10:28:38;;;;;;;6.93;5.45;;;34.00;51.10;;;;;;5097590;28;20206;-71
2021/07/23 10:31:24;;;;;;;8.55;5.00;;;34.10;50.30;;;;;;5097238;28;20035;-71
2021/07/23 10:34:06;;;;;;;7.10;5.03;;;34.10;53.30;;;;;;5097514;28;20046;-71
2021/07/23 10:36:32;;;;;;;6.88;4.80;;;34.40;52.00;;;;;;5097056;28;20020;-71
2021/07/23 10:39:07;;;;;;;8.20;5.10;;;34.20;51.20;;;;;;5097040;28;20153;-71
2021/07/23 10:42:02;;;;;;;8.82;5.28;;;34.20;52.70;;;;;;5097290;28;20031;-71
2021/07/23 10:44:27;;;;;;;10.57;5.68;;;34.00;51.80;;;;;;5096513;28;20116;-72
2021/07/23 10:46:58;;;;;;;7.22;4.95;;;34.10;51.80;;;;;;5096969;28;20413;-71
2021/07/23 10:49:26;;;;;;;5.97;5.28;;;34.00;52.00;;;;;;5097306;28;20024;-71
2021/07/23 10:51:58;;;;;;;9.93;4.80;;;33.60;53.10;;;;;;5096915;28;20154;-72
2021/07/23 10:54:29;;;;;;;6.32;4.80;;;33.60;54.20;;;;;;5097207;28;20032;-72
2021/07/23 10:57:00;;;;;;;12.77;5.20;;;33.90;53.80;;;;;;5097188;28;20035;-72
2021/07/23 10:59:38;;;;;;;11.38;5.45;;;33.90;54.40;;;;;;5097142;28;20059;-71
2021/07/23 11:02:05;;;;;;;8.63;5.38;;;34.00;53.00;;;;;;5096416;28;20035;-72
2021/07/23 11:04:31;;;;;;;8.40;6.07;;;34.10;53.90;;;;;;5096792;28;20029;-72
2021/07/23 11:07:01;;;;;;;7.47;4.82;;;34.20;54.30;;;;;;5096700;28;20027;-72
2021/07/23 11:09:31;;;;;;;6.88;4.95;;;34.20;52.50;;;;;;5097021;28;20133;-72
2021/07/23 11:12:18;;;;;;;7.15;4.90;;;34.20;52.40;;;;;;5096927;28;20031;-72
2021/07/23 11:14:52;;;;;;;8.20;5.30;;;34.20;53.70;;;;;;5097053;28;20047;-72
2021/07/23 11:17:19;;;;;;;8.63;4.85;;;34.00;52.80;;;;;;5096926;28;20027;-72
2021/07/23 11:19:49;;;;;;;6.38;5.38;;;34.10;53.30;;;;;;5096655;28;20039;-72
2021/07/23 11:22:50;;;;;;;6.95;5.20;;;34.10;53.40;;;;;;5096430;28;20027;-72
2021/07/23 11:25:16;;;;;;;8.88;5.47;;;34.10;53.60;;;;;;5082401;28;20036;-72
2021/07/23 11:27:42;;;;;;;7.70;5.30;;;34.10;52.70;;;;;;5096897;28;20039;-72
2021/07/23 11:30:27;;;;;;;11.50;5.95;;;34.10;51.20;;;;;;5096806;28;20024;-72
2021/07/23 11:32:55;;;;;;;8.13;5.47;;;33.80;53.30;;;;;;5096990;28;20095;-72
2021/07/23 11:35:25;;;;;;;8.65;5.45;;;33.70;54.00;;;;;;5096777;28;20024;-72
2021/07/23 11:37:53;;;;;;;5.30;4.80;;;33.80;54.00;;;;;;5096558;28;20426;-72
2021/07/23 11:40:24;;;;;;;6.78;5.20;;;33.80;52.40;;;;;;5096465;28;20028;-72
2021/07/23 11:42:54;;;;;;;9.35;5.68;;;33.60;52.90;;;;;;5096393;28;20028;-72
2021/07/23 11:45:38;;;;;;;8.70;5.82;;;33.40;55.10;;;;;;5096260;28;20052;-72
2021/07/23 11:48:18;;;;;;;8.30;6.17;;;33.70;54.80;;;;;;5096503;28;20020;-72
2021/07/23 11:51:04;;;;;;;8.98;6.03;;;33.80;53.30;;;;;;5096657;28;20030;-72
2021/07/23 11:53:29;;;;;;;7.75;5.60;;;33.50;54.30;;;;;;5096334;28;20032;-72
2021/07/23 11:55:56;;;;;;;9.05;5.93;;;33.50;54.70;;;;;;5096256;28;20020;-72
2021/07/23 11:58:26;;;;;;;7.47;6.47;;;33.20;54.40;;;;;;5096621;28;20353;-72
2021/07/23 12:00:53;;;;;;;6.65;5.93;;;33.20;53.70;;;;;;5096561;28;20068;-72
2021/07/23 12:03:22;;;;;;;6.43;5.38;;;32.80;53.90;;;;;;5096285;28;20020;-72
2021/07/23 12:05:48;;;;;;;10.02;6.28;;;32.30;54.40;;;;;;5096126;28;20416;-72
2021/07/23 12:08:14;;;;;;;10.80;6.30;;;32.00;56.90;;;;;;5096550;28;20290;-70
2021/07/23 12:10:41;;;;;;;13.02;5.93;;;31.90;56.40;;;;;;5096460;28;20021;-72
2021/07/23 12:13:11;;;;;;;6.45;5.78;;;32.00;56.80;;;;;;5096461;28;20036;-71
2021/07/23 12:15:42;;;;;;;7.22;5.85;;;32.00;55.90;;;;;;5099806;28;20036;-71
2021/07/23 12:18:09;;;;;;;7.50;5.93;;;31.90;55.40;;;;;;5099762;28;20021;-72
2021/07/23 12:20:35;;;;;;;10.15;6.13;;;31.60;57.10;;;;;;5099663;28;20466;-71
2021/07/23 12:23:04;;;;;;;6.90;6.28;;;31.40;58.40;;;;;;5099992;28;20044;-71
2021/07/23 12:25:43;;;;;;;8.95;6.10;;;31.40;56.50;;;;;;5099926;28;20051;-72
2021/07/23 12:28:12;;;;;;;7.45;5.70;;;31.40;59.30;;;;;;5099921;28;20359;-71
2021/07/23 12:30:40;;;;;;;8.00;5.90;;;31.50;57.80;;;;;;5099842;28;20077;-71
2021/07/23 12:33:15;;;;;;;6.55;5.80;;;31.50;58.10;;;;;;5099458;28;20025;-71
2021/07/23 12:35:43;;;;;;;7.63;6.13;;;31.50;58.10;;;;;;5099659;28;20313;-71
2021/07/23 12:38:10;;;;;;;11.27;6.13;;;31.40;57.90;;;;;;5099690;28;20099;-71
2021/07/23 12:41:01;;;;;;;7.65;6.78;;;31.00;57.20;;;;;;5099560;28;20024;-72
2021/07/23 12:43:33;;;;;;;8.55;6.00;;;30.50;57.80;;;;;;5099646;28;20363;-72
2021/07/23 12:46:04;;;;;;;10.20;5.80;;;30.50;60.40;;;;;;5099009;28;20036;-71
2021/07/23 12:48:35;;;;;;;6.63;5.78;;;30.60;56.90;;;;;;5099575;28;20044;-71